createdAt,value
2022-10-11T00:00:09.372Z,96035.31
2022-10-11T00:02:35.888Z,96026.31
2022-10-11T00:05:02.434Z,96036.13
2022-10-11T00:07:28.966Z,96034.09
2022-10-11T00:09:55.555Z,96035.31
2022-10-11T00:12:22.261Z,96028.38
2022-10-11T00:14:48.862Z,96035.31
2022-10-11T00:17:15.400Z,96040.41
2022-10-11T00:19:41.921Z,96043.06
2022-10-11T00:22:08.450Z,96046.34
2022-10-11T00:24:35.062Z,96045.09
2022-10-11T00:27:01.685Z,96047.13
2022-10-11T00:29:28.235Z,96050.38
2022-10-11T00:31:54.799Z,96049.16
2022-10-11T00:34:21.355Z,96058.16
2022-10-11T00:36:48.267Z,96042.63
2022-10-11T00:39:14.810Z,96046.31
2022-10-11T00:41:41.598Z,96052.66
2022-10-11T00:44:13.775Z,96048.75
2022-10-11T00:46:45.791Z,96046.31
2022-10-11T00:49:19.778Z,96039.34
2022-10-11T00:51:53.075Z,96048.34
2022-10-11T00:54:25.881Z,96047.72
2022-10-11T00:57:06.875Z,96044.66
2022-10-11T00:59:39.665Z,96045.69
2022-10-11T01:02:08.575Z,96038.13
2022-10-11T01:04:35.079Z,96050.78
2022-10-11T01:07:02.481Z,96054.69
2022-10-11T01:09:29.771Z,96044.28
2022-10-11T01:12:00.847Z,96042.63
2022-10-11T01:14:46.596Z,96047.13
2022-10-11T01:17:30.231Z,96048.34
2022-10-11T01:20:14.909Z,96044.66
2022-10-11T01:23:26.081Z,96042.41
2022-10-11T01:26:26.859Z,96041.38
2022-10-11T01:29:29.062Z,96036.59
2022-10-11T01:32:25.937Z,96031.47
2022-10-11T01:35:07.191Z,96043.34
2022-10-11T01:37:43.429Z,96039.69
2022-10-11T01:40:22.721Z,96039.44
2022-10-11T01:42:50.496Z,96032.69
2022-10-11T01:45:19.556Z,96038.44
2022-10-11T01:47:46.157Z,96039.84
2022-10-11T01:50:42.309Z,96034.53
2022-10-11T01:53:26.626Z,96020.72
2022-10-11T01:56:14.480Z,96022.75
2022-10-11T01:59:15.219Z,96026.25
2022-10-11T02:02:03.226Z,96021.09
2022-10-11T02:04:32.725Z,96018.28
2022-10-11T02:07:07.841Z,96024.44
2022-10-11T02:09:44.461Z,96017.72
2022-10-11T02:12:15.733Z,96023.03
2022-10-11T02:14:48.789Z,96015.69
2022-10-11T02:17:23.253Z,96019.38
2022-10-11T02:19:56.603Z,96014.28
2022-10-11T02:22:33.681Z,96020.00
2022-10-11T02:25:08.724Z,96007.28
2022-10-11T02:27:40.096Z,96013.38
2022-10-11T02:30:08.982Z,96019.44
2022-10-11T02:32:41.968Z,96013.13
2022-10-11T02:35:10.137Z,96013.38
2022-10-11T02:37:41.474Z,96013.75
2022-10-11T02:40:35.354Z,96012.97
2022-10-11T02:43:11.899Z,96008.69
2022-10-11T02:45:48.190Z,96005.00
2022-10-11T02:48:15.932Z,96013.59
2022-10-11T02:50:43.261Z,96007.28
2022-10-11T02:53:10.181Z,96005.00
2022-10-11T02:55:37.309Z,96006.41
2022-10-11T02:58:03.836Z,96004.16
2022-10-11T03:00:30.660Z,96011.34
2022-10-11T03:02:57.247Z,96012.97
2022-10-11T03:05:23.955Z,96013.78
2022-10-11T03:07:50.495Z,96016.25
2022-10-11T03:10:19.493Z,96019.53
2022-10-11T03:12:46.007Z,96016.44
2022-10-11T03:15:12.534Z,96021.97
2022-10-11T03:17:39.048Z,96022.59
2022-10-11T03:20:06.378Z,96018.28
2022-10-11T03:22:32.987Z,96017.28
2022-10-11T03:25:03.603Z,96025.88
2022-10-11T03:27:31.137Z,96014.84
2022-10-11T03:29:57.625Z,96008.88
2022-10-11T03:32:24.138Z,96025.03
2022-10-11T03:34:50.715Z,96013.81
2022-10-11T03:37:17.361Z,96020.78
2022-10-11T03:39:43.867Z,96023.22
2022-10-11T03:42:10.473Z,96020.78
2022-10-11T03:44:37.026Z,96026.31
2022-10-11T03:47:03.614Z,96029.75
2022-10-11T03:49:30.270Z,96024.84
2022-10-11T03:51:56.807Z,96023.41
2022-10-11T03:54:23.325Z,96027.31
2022-10-11T03:56:49.944Z,96028.13
2022-10-11T03:59:16.591Z,96028.13
2022-10-11T04:01:43.284Z,96029.13
2022-10-11T04:04:10.037Z,96034.44
2022-10-11T04:06:36.572Z,96024.84
2022-10-11T04:09:03.382Z,96024.81
2022-10-11T04:11:29.918Z,96026.03
2022-10-11T04:13:56.409Z,96029.31
2022-10-11T04:16:23.084Z,96028.94
2022-10-11T04:18:49.617Z,96036.25
2022-10-11T04:21:16.152Z,96029.31
2022-10-11T04:23:42.700Z,96033.78
2022-10-11T04:26:09.267Z,96030.06
2022-10-11T04:28:36.103Z,96027.66
2022-10-11T04:31:02.859Z,96026.88
2022-10-11T04:33:29.748Z,96024.00
2022-10-11T04:35:57.090Z,96033.38
2022-10-11T04:38:24.033Z,96035.00
2022-10-11T04:40:50.613Z,96035.19
2022-10-11T04:43:18.329Z,96037.19
2022-10-11T04:45:45.019Z,96034.94
2022-10-11T04:48:11.539Z,96029.66
2022-10-11T04:50:38.154Z,96033.53
2022-10-11T04:53:07.938Z,96035.41
2022-10-11T04:55:34.455Z,96045.16
2022-10-11T04:58:01.159Z,96042.13
2022-10-11T05:00:27.757Z,96048.09
2022-10-11T05:02:54.296Z,96045.56
2022-10-11T05:05:20.880Z,96037.59
2022-10-11T05:07:47.443Z,96040.25
2022-10-11T05:10:14.091Z,96029.97
2022-10-11T05:12:40.790Z,96036.50
2022-10-11T05:15:08.017Z,96046.69
2022-10-11T05:17:34.522Z,96044.25
2022-10-11T05:20:01.011Z,96042.56
2022-10-11T05:22:27.576Z,96048.00
2022-10-11T05:24:54.112Z,96042.44
2022-10-11T05:27:20.607Z,96043.22
2022-10-11T05:29:47.124Z,96040.56
2022-10-11T05:32:13.621Z,96049.13
2022-10-11T05:34:40.110Z,96051.78
2022-10-11T05:37:06.626Z,96054.22
2022-10-11T05:39:33.092Z,96056.63
2022-10-11T05:41:59.614Z,96051.69
2022-10-11T05:44:26.148Z,96052.47
2022-10-11T05:46:52.689Z,96056.63
2022-10-11T05:49:19.194Z,96052.94
2022-10-11T05:51:45.764Z,96048.66
2022-10-11T05:54:12.313Z,96046.00
2022-10-11T05:56:38.883Z,96052.91
2022-10-11T05:59:05.414Z,96063.13
2022-10-11T06:01:32.066Z,96058.25
2022-10-11T06:03:58.736Z,96054.97
2022-10-11T06:06:25.366Z,96057.00
2022-10-11T06:08:52.067Z,96067.59
2022-10-11T06:11:22.679Z,96064.78
2022-10-11T06:13:49.392Z,96076.41
2022-10-11T06:16:16.033Z,96059.91
2022-10-11T06:18:42.596Z,96068.13
2022-10-11T06:21:09.172Z,96074.06
2022-10-11T06:23:35.778Z,96079.22
2022-10-11T06:26:06.643Z,96076.84
2022-10-11T06:28:35.541Z,96079.72
2022-10-11T06:31:05.191Z,96086.28
2022-10-11T06:33:31.989Z,96087.69
2022-10-11T06:36:09.662Z,96084.41
2022-10-11T06:38:39.784Z,96085.91
2022-10-11T06:41:10.567Z,96082.47
2022-10-11T06:43:37.121Z,96091.72
2022-10-11T06:46:04.313Z,96091.59
2022-10-11T06:48:31.079Z,96087.72
2022-10-11T06:51:01.474Z,96095.50
2022-10-11T06:53:28.153Z,96095.31
2022-10-11T06:56:02.364Z,96094.34
2022-10-11T06:58:29.271Z,96101.72
2022-10-11T07:01:10.607Z,96101.13
2022-10-11T07:03:37.724Z,96103.63
2022-10-11T07:06:08.575Z,96104.72
2022-10-11T07:08:36.807Z,96107.97
2022-10-11T07:11:09.591Z,96113.50
2022-10-11T07:13:37.667Z,96111.09
2022-10-11T07:16:08.244Z,96116.22
2022-10-11T07:18:35.119Z,96114.97
2022-10-11T07:21:07.421Z,96111.28
2022-10-11T07:23:34.364Z,96110.91
2022-10-11T07:26:01.132Z,96112.59
2022-10-11T07:28:28.458Z,96116.91
2022-10-11T07:30:55.144Z,96108.16
2022-10-11T07:33:21.794Z,96109.84
2022-10-11T07:35:49.549Z,96109.47
2022-10-11T07:38:16.757Z,96115.66
2022-10-11T07:40:45.998Z,96108.50
2022-10-11T07:43:13.519Z,96107.94
2022-10-11T07:45:41.953Z,96110.41
2022-10-11T07:48:09.074Z,96109.22
2022-10-11T07:50:36.045Z,96109.16
2022-10-11T07:53:03.117Z,96104.66
2022-10-11T07:55:33.787Z,96104.28
2022-10-11T07:58:00.297Z,96114.56
2022-10-11T08:00:26.793Z,96119.06
2022-10-11T08:02:53.317Z,96112.09
2022-10-11T08:05:19.856Z,96117.84
2022-10-11T08:07:46.379Z,96115.38
2022-10-11T08:10:12.914Z,96117.84
2022-10-11T08:12:39.547Z,96118.28
2022-10-11T08:15:06.571Z,96121.56
2022-10-11T08:17:33.192Z,96121.78
2022-10-11T08:19:59.791Z,96121.31
2022-10-11T08:22:26.341Z,96118.91
2022-10-11T08:24:52.887Z,96117.03
2022-10-11T08:27:21.431Z,96119.91
2022-10-11T08:29:48.163Z,96122.16
2022-10-11T08:32:14.865Z,96118.63
2022-10-11T08:34:41.390Z,96129.75
2022-10-11T08:37:08.164Z,96117.38
2022-10-11T08:39:34.886Z,96115.78
2022-10-11T08:42:23.364Z,96117.03
2022-10-11T08:45:10.631Z,96123.78
2022-10-11T08:47:44.806Z,96126.66
2022-10-11T08:50:19.597Z,96123.16
2022-10-11T08:53:10.967Z,96123.97
2022-10-11T08:55:52.343Z,96122.16
2022-10-11T08:58:25.709Z,96120.28
2022-10-11T09:00:56.367Z,96128.94
2022-10-11T09:03:37.055Z,96121.16
2022-10-11T09:06:25.368Z,96128.53
2022-10-11T09:09:16.157Z,96125.25
2022-10-11T09:12:04.218Z,96128.13
2022-10-11T09:14:38.939Z,96121.09
2022-10-11T09:17:33.858Z,96119.25
2022-10-11T09:20:24.138Z,96116.16
2022-10-11T09:23:13.105Z,96115.75
2022-10-11T09:25:54.845Z,96114.47
2022-10-11T09:28:35.493Z,96114.09
2022-10-11T09:31:02.312Z,96111.63
2022-10-11T09:33:35.347Z,96107.75
2022-10-11T09:36:16.256Z,96121.31
2022-10-11T09:39:06.478Z,96114.16
2022-10-11T09:41:51.383Z,96123.56
2022-10-11T09:44:28.288Z,96119.88
2022-10-11T09:46:56.899Z,96112.44
2022-10-11T09:49:37.141Z,96114.47
2022-10-11T09:52:11.193Z,96109.00
2022-10-11T09:54:40.016Z,96112.84
2022-10-11T09:57:21.312Z,96105.88
2022-10-11T10:00:18.745Z,96111.63
2022-10-11T10:02:54.477Z,96111.41
2022-10-11T10:05:32.839Z,96116.66
2022-10-11T10:08:04.076Z,96119.34
2022-10-11T10:10:31.147Z,96117.34
2022-10-11T10:13:03.890Z,96106.94
2022-10-11T10:15:47.415Z,96114.88
2022-10-11T10:18:22.844Z,96109.50
2022-10-11T10:20:58.802Z,96109.44
2022-10-11T10:23:32.434Z,96112.94
2022-10-11T10:26:17.478Z,96106.97
2022-10-11T10:29:03.727Z,96100.53
2022-10-11T10:31:49.196Z,96107.59
2022-10-11T10:34:46.663Z,96109.28
2022-10-11T10:37:26.626Z,96100.13
2022-10-11T10:40:13.050Z,96106.94
2022-10-11T10:42:40.007Z,96101.28
2022-10-11T10:45:18.643Z,96097.03
2022-10-11T10:48:10.668Z,96095.81
2022-10-11T10:51:01.408Z,96096.69
2022-10-11T10:53:38.106Z,96102.38
2022-10-11T10:56:12.015Z,96095.34
2022-10-11T10:58:54.253Z,96103.25
2022-10-11T11:01:30.521Z,96105.31
2022-10-11T11:04:24.725Z,96108.63
2022-10-11T11:07:11.619Z,96094.00
2022-10-11T11:09:52.797Z,96101.94
2022-10-11T11:12:22.303Z,96101.06
2022-10-11T11:15:04.227Z,96087.91
2022-10-11T11:17:45.162Z,96092.97
2022-10-11T11:20:23.788Z,96093.25
2022-10-11T11:23:32.047Z,96086.34
2022-10-11T11:26:20.406Z,96090.91
2022-10-11T11:29:22.354Z,96089.03
2022-10-11T11:32:30.900Z,96083.88
2022-10-11T11:35:09.611Z,96090.16
2022-10-11T11:37:41.376Z,96081.88
2022-10-11T11:40:16.717Z,96081.22
2022-10-11T11:42:51.469Z,96080.78
2022-10-11T11:45:30.842Z,96088.91
2022-10-11T11:48:13.193Z,96086.97
2022-10-11T11:50:46.260Z,96079.81
2022-10-11T11:53:18.735Z,96080.50
2022-10-11T11:55:50.644Z,96076.84
2022-10-11T11:58:50.073Z,96083.22
2022-10-11T12:01:47.255Z,96070.69
2022-10-11T12:04:31.343Z,96067.47
2022-10-11T12:07:17.738Z,96066.66
2022-10-11T12:09:49.788Z,96059.25
2022-10-11T12:12:37.243Z,96059.94
2022-10-11T12:15:19.600Z,96061.88
2022-10-11T12:17:54.988Z,96056.31
2022-10-11T12:20:26.131Z,96053.25
2022-10-11T12:22:56.082Z,96052.19
2022-10-11T12:25:22.546Z,96052.13
2022-10-11T12:27:53.619Z,96045.66
2022-10-11T12:30:45.048Z,96037.66
2022-10-11T12:33:15.932Z,96041.16
2022-10-11T12:35:54.589Z,96034.72
2022-10-11T12:38:28.353Z,96041.34
2022-10-11T12:40:57.215Z,96041.06
2022-10-11T12:43:55.122Z,96032.53
2022-10-11T12:46:30.395Z,96025.63
2022-10-11T12:49:26.811Z,96023.63
2022-10-11T12:52:17.803Z,96021.47
2022-10-11T12:54:44.328Z,96023.78
2022-10-11T12:57:32.430Z,96020.03
2022-10-11T13:00:28.508Z,96018.47
2022-10-11T13:03:05.224Z,96024.75
2022-10-11T13:05:48.680Z,96024.97
2022-10-11T13:08:32.387Z,96018.75
2022-10-11T13:11:03.414Z,96018.78
2022-10-11T13:13:40.257Z,96011.78
2022-10-11T13:16:13.306Z,96011.41
2022-10-11T13:18:45.610Z,96014.59
2022-10-11T13:21:25.620Z,96006.91
2022-10-11T13:24:00.142Z,96004.69
2022-10-11T13:26:30.289Z,96009.91
2022-10-11T13:28:58.317Z,96004.47
2022-10-11T13:31:25.081Z,96000.69
2022-10-11T13:33:55.400Z,95997.28
2022-10-11T13:36:26.094Z,95990.84
2022-10-11T13:38:59.058Z,95989.88
2022-10-11T13:41:31.972Z,95991.22
2022-10-11T13:44:00.377Z,95989.66
2022-10-11T13:46:30.601Z,95991.25
2022-10-11T13:49:31.150Z,95981.75
2022-10-11T13:52:03.056Z,95983.78
2022-10-11T13:54:55.546Z,95983.28
2022-10-11T13:57:31.478Z,95988.19
2022-10-11T13:59:58.268Z,95984.72
2022-10-11T14:02:29.260Z,95983.75
2022-10-11T14:04:55.738Z,95974.84
2022-10-11T14:07:33.085Z,95977.94
2022-10-11T14:09:59.807Z,95973.38
2022-10-11T14:12:40.480Z,95978.91
2022-10-11T14:15:33.591Z,95970.91
2022-10-11T14:18:01.962Z,95973.03
2022-10-11T14:20:38.989Z,95972.53
2022-10-11T14:23:07.011Z,95975.72
2022-10-11T14:25:34.500Z,95977.44
2022-10-11T14:28:01.099Z,95975.66
2022-10-11T14:30:28.645Z,95980.66
2022-10-11T14:32:59.349Z,95986.03
2022-10-11T14:35:29.658Z,95980.50
2022-10-11T14:37:56.241Z,95974.97
2022-10-11T14:40:25.886Z,95971.16
2022-10-11T14:42:52.477Z,95971.09
2022-10-11T14:45:19.944Z,95966.34
2022-10-11T14:47:46.678Z,95969.09
2022-10-11T14:50:27.449Z,95971.88
2022-10-11T14:52:54.717Z,95972.81
2022-10-11T14:55:21.224Z,95968.28
2022-10-11T14:57:55.215Z,95966.13
2022-10-11T15:00:26.077Z,95966.97
2022-10-11T15:02:53.296Z,95969.22
2022-10-11T15:05:21.150Z,95972.22
2022-10-11T15:07:48.549Z,95973.00
2022-10-11T15:10:22.657Z,95963.25
2022-10-11T15:12:53.924Z,95962.38
2022-10-11T15:15:23.763Z,95966.88
2022-10-11T15:17:53.776Z,95968.78
2022-10-11T15:20:27.778Z,95969.19
2022-10-11T15:23:00.028Z,95962.84
2022-10-11T15:25:27.990Z,95967.56
2022-10-11T15:27:54.637Z,95968.50
2022-10-11T15:30:25.153Z,95965.41
2022-10-11T15:32:52.091Z,95970.13
2022-10-11T15:35:19.552Z,95961.50
2022-10-11T15:37:46.718Z,95962.66
2022-10-11T15:40:23.719Z,95960.56
2022-10-11T15:42:51.509Z,95961.03
2022-10-11T15:45:19.431Z,95963.38
2022-10-11T15:47:46.121Z,95956.97
2022-10-11T15:50:12.536Z,95957.56
2022-10-11T15:52:39.162Z,95958.97
2022-10-11T15:55:05.782Z,95965.28
2022-10-11T15:57:32.233Z,95960.38
2022-10-11T15:59:58.712Z,95958.88
2022-10-11T16:02:25.301Z,95960.59
2022-10-11T16:04:53.072Z,95965.75
2022-10-11T16:07:19.557Z,95973.66
2022-10-11T16:09:46.027Z,95967.84
2022-10-11T16:12:12.605Z,95969.34
2022-10-11T16:14:42.598Z,95965.38
2022-10-11T16:17:11.533Z,95968.53
2022-10-11T16:19:38.004Z,95974.13
2022-10-11T16:22:04.444Z,95976.22
2022-10-11T16:24:30.983Z,95980.84
2022-10-11T16:26:57.444Z,95984.22
2022-10-11T16:29:24.053Z,95983.19
2022-10-11T16:31:50.523Z,95988.34
2022-10-11T16:34:17.122Z,95987.78
2022-10-11T16:36:43.824Z,95996.31
2022-10-11T16:39:16.596Z,95997.28
2022-10-11T16:41:43.100Z,95994.69
2022-10-11T16:44:14.962Z,95996.03
2022-10-11T16:46:42.147Z,95995.59
2022-10-11T16:49:08.741Z,95999.47
2022-10-11T16:51:35.235Z,96008.97
2022-10-11T16:54:01.881Z,96009.84
2022-10-11T16:56:28.636Z,96007.91
2022-10-11T16:58:55.914Z,96022.34
2022-10-11T17:01:22.967Z,96022.09
2022-10-11T17:03:50.230Z,96009.53
2022-10-11T17:06:17.123Z,96016.16
2022-10-11T17:08:43.791Z,96007.69
2022-10-11T17:11:10.556Z,96009.34
2022-10-11T17:13:37.017Z,96006.31
2022-10-11T17:16:04.063Z,95995.88
2022-10-11T17:18:32.358Z,96001.94
2022-10-11T17:21:07.934Z,95995.84
2022-10-11T17:23:35.494Z,96006.75
2022-10-11T17:26:10.077Z,96001.69
2022-10-11T17:28:38.969Z,96000.19
2022-10-11T17:31:05.937Z,96004.13
2022-10-11T17:33:33.120Z,96001.44
2022-10-11T17:36:00.598Z,96007.38
2022-10-11T17:38:27.654Z,96002.47
2022-10-11T17:41:01.452Z,96010.84
2022-10-11T17:43:28.576Z,96004.56
2022-10-11T17:45:59.269Z,96011.03
2022-10-11T17:48:28.067Z,96004.06
2022-10-11T17:50:55.014Z,96013.31
2022-10-11T17:53:21.660Z,96009.22
2022-10-11T17:55:48.166Z,96013.34
2022-10-11T17:58:14.659Z,96018.84
2022-10-11T18:00:41.186Z,96011.28
2022-10-11T18:03:07.660Z,96016.00
2022-10-11T18:05:39.861Z,96018.25
2022-10-11T18:08:07.211Z,96018.59
2022-10-11T18:10:35.334Z,96022.47
2022-10-11T18:13:06.327Z,96025.84
2022-10-11T18:15:33.222Z,96023.69
2022-10-11T18:18:00.023Z,96034.72
2022-10-11T18:20:26.633Z,96031.81
2022-10-11T18:22:53.190Z,96030.63
2022-10-11T18:25:20.208Z,96035.19
2022-10-11T18:27:46.658Z,96029.09
2022-10-11T18:30:19.701Z,96029.09
2022-10-11T18:32:46.201Z,96025.19
2022-10-11T18:35:12.723Z,96025.72
2022-10-11T18:37:39.216Z,96022.53
2022-10-11T18:40:06.163Z,96021.28
2022-10-11T18:42:32.625Z,96022.75
2022-10-11T18:44:59.136Z,96015.38
2022-10-11T18:47:25.611Z,96017.28
2022-10-11T18:49:52.129Z,96011.91
2022-10-11T18:52:18.598Z,96017.28
2022-10-11T18:54:45.149Z,96014.75
2022-10-11T18:57:11.716Z,96025.72
2022-10-11T18:59:38.158Z,96008.88
2022-10-11T19:02:04.666Z,96016.22
2022-10-11T19:04:31.146Z,96003.91
2022-10-11T19:06:57.636Z,96000.97
2022-10-11T19:09:24.207Z,95995.88
2022-10-11T19:11:52.860Z,95990.72
2022-10-11T19:14:22.043Z,95990.25
2022-10-11T19:16:50.304Z,95991.66
2022-10-11T19:19:19.708Z,95991.25
2022-10-11T19:21:46.193Z,96004.09
2022-10-11T19:24:12.667Z,96002.06
2022-10-11T19:26:40.637Z,96015.16
2022-10-11T19:29:08.485Z,96013.78
2022-10-11T19:31:40.440Z,96019.31
2022-10-11T19:34:06.928Z,96031.59
2022-10-11T19:36:36.590Z,96033.63
2022-10-11T19:39:05.327Z,96035.06
2022-10-11T19:41:32.713Z,96038.50
2022-10-11T19:43:59.193Z,96041.34
2022-10-11T19:46:44.855Z,96034.06
2022-10-11T19:49:14.362Z,96026.25
2022-10-11T19:51:41.385Z,96034.81
2022-10-11T19:54:11.531Z,96037.00
2022-10-11T19:56:38.002Z,96039.91
2022-10-11T19:59:04.862Z,96043.84
2022-10-11T20:01:31.791Z,96045.69
2022-10-11T20:04:07.035Z,96044.91
2022-10-11T20:06:38.475Z,96044.06
2022-10-11T20:09:28.114Z,96047.75
2022-10-11T20:11:53.581Z,96043.28
2022-10-11T20:14:20.446Z,96045.72
2022-10-11T20:16:50.035Z,96042.22
2022-10-11T20:19:17.280Z,96040.78
2022-10-11T20:21:44.150Z,96052.69
2022-10-11T20:24:10.616Z,96052.25
2022-10-11T20:26:37.091Z,96049.78
2022-10-11T20:29:03.560Z,96050.41
2022-10-11T20:31:32.708Z,96045.72
2022-10-11T20:34:01.571Z,96051.44
2022-10-11T20:36:29.910Z,96057.78
2022-10-11T20:38:58.021Z,96053.91
2022-10-11T20:41:27.586Z,96062.47
2022-10-11T20:43:56.581Z,96056.38
2022-10-11T20:46:26.089Z,96056.78
2022-10-11T20:49:01.143Z,96058.00
2022-10-11T20:51:30.060Z,96057.19
2022-10-11T20:53:56.716Z,96056.78
2022-10-11T20:56:23.797Z,96053.06
2022-10-11T20:58:59.714Z,96052.63
2022-10-11T21:01:31.552Z,96066.94
2022-10-11T21:03:59.757Z,96065.13
2022-10-11T21:06:27.206Z,96071.44
2022-10-11T21:08:58.214Z,96075.13
2022-10-11T21:11:26.621Z,96073.03
2022-10-11T21:13:58.348Z,96066.91
2022-10-11T21:16:28.169Z,96070.97
2022-10-11T21:18:57.119Z,96068.50
2022-10-11T21:21:24.256Z,96080.78
2022-10-11T21:23:55.495Z,96072.97
2022-10-11T21:26:22.133Z,96069.06
2022-10-11T21:28:49.164Z,96072.16
2022-10-11T21:31:18.184Z,96073.44
2022-10-11T21:33:44.768Z,96080.22
2022-10-11T21:36:17.634Z,96077.53
2022-10-11T21:38:44.739Z,96077.94
2022-10-11T21:41:17.487Z,96077.69
2022-10-11T21:43:44.362Z,96074.59
2022-10-11T21:46:16.311Z,96076.88
2022-10-11T21:48:42.811Z,96082.78
2022-10-11T21:51:15.434Z,96073.34
2022-10-11T21:53:41.925Z,96072.88
2022-10-11T21:56:08.906Z,96071.69
2022-10-11T21:58:35.413Z,96072.19
2022-10-11T22:01:01.991Z,96068.88
2022-10-11T22:03:28.514Z,96081.22
2022-10-11T22:05:54.980Z,96073.81
2022-10-11T22:08:22.321Z,96068.91
2022-10-11T22:10:54.602Z,96068.47
2022-10-11T22:13:21.078Z,96067.25
2022-10-11T22:15:47.546Z,96067.69
2022-10-11T22:18:14.086Z,96069.72
2022-10-11T22:20:40.735Z,96073.44
2022-10-11T22:23:07.344Z,96073.66
2022-10-11T22:25:39.810Z,96070.63
2022-10-11T22:28:06.679Z,96074.75
2022-10-11T22:30:33.262Z,96074.53
2022-10-11T22:32:59.796Z,96079.69
2022-10-11T22:35:26.589Z,96074.34
2022-10-11T22:37:53.226Z,96077.28
2022-10-11T22:40:20.556Z,96074.00
2022-10-11T22:42:47.193Z,96077.69
2022-10-11T22:45:13.659Z,96071.50
2022-10-11T22:47:40.190Z,96071.72
2022-10-11T22:50:06.839Z,96071.50
2022-10-11T22:52:33.332Z,96077.69
2022-10-11T22:55:03.026Z,96073.38
2022-10-11T22:57:29.523Z,96073.59
2022-10-11T22:59:58.591Z,96072.72
2022-10-11T23:02:25.232Z,96080.91
2022-10-11T23:04:54.030Z,96080.50
2022-10-11T23:07:20.511Z,96082.84
2022-10-11T23:09:48.928Z,96089.34
2022-10-11T23:12:15.433Z,96089.34
2022-10-11T23:14:42.074Z,96092.25
2022-10-11T23:17:08.609Z,96086.56
2022-10-11T23:19:35.118Z,96085.53
2022-10-11T23:22:01.578Z,96085.06
2022-10-11T23:24:28.036Z,96088.53
2022-10-11T23:26:54.670Z,96091.38
2022-10-11T23:29:21.130Z,96087.41
2022-10-11T23:31:47.619Z,96090.81
2022-10-11T23:34:14.205Z,96079.91
2022-10-11T23:36:41.225Z,96088.94
2022-10-11T23:39:07.746Z,96089.25
2022-10-11T23:41:34.215Z,96094.03
2022-10-11T23:44:00.678Z,96094.34
2022-10-11T23:46:27.297Z,96091.84
2022-10-11T23:48:53.794Z,96100.38
2022-10-11T23:51:20.292Z,96096.47
2022-10-11T23:53:46.966Z,96099.50
2022-10-11T23:56:15.439Z,96092.25
2022-10-11T23:58:41.939Z,96100.91
